Time;durP1;ratioP1;P1;durP2;ratioP2;P2;SDS_P1;SDS_P2;PMS_P1;PMS_P2;Temp;Humidity;BMP_temperature;BMP_pressure;BME280_temperature;BME280_humidity;BME280_pressure;Samples;Min_cycle;Max_cycle;Signal;HPM_P1;HPM_P2
2022/03/24 00:02:15;;;;;;;29.42;16.17;;;;;;;7.82;35.42;102327.58;1619100;88;21115;-66
2022/03/24 00:04:44;;;;;;;26.52;14.33;;;;;;;7.80;35.35;102324.09;1618800;88;21068;-66
2022/03/24 00:07:12;;;;;;;27.80;14.55;;;;;;;7.78;35.33;102326.67;1634429;88;21030;-66
2022/03/24 00:09:39;;;;;;;28.12;14.83;;;;;;;7.77;35.20;102321.48;1636738;88;21493;-66
2022/03/24 00:12:08;;;;;;;27.37;14.43;;;;;;;7.74;35.58;102330.06;1603600;89;21114;-66
2022/03/24 00:14:35;;;;;;;25.68;14.53;;;;;;;7.71;35.89;102322.23;1604189;89;21067;-66
2022/03/24 00:17:02;;;;;;;30.37;16.45;;;;;;;7.70;35.92;102314.03;1615495;88;21133;-65
2022/03/24 00:19:30;;;;;;;31.30;16.90;;;;;;;7.72;35.18;102308.45;1633542;86;21073;-66
2022/03/24 00:21:58;;;;;;;30.40;17.35;;;;;;;7.73;34.27;102305.44;1633413;88;21117;-66
2022/03/24 00:24:25;;;;;;;33.28;16.93;;;;;;;7.73;33.75;102305.44;1633524;86;21515;-66
2022/03/24 00:26:54;;;;;;;34.00;17.27;;;;;;;7.69;33.41;102305.80;1632964;88;21050;-66
2022/03/24 00:29:20;;;;;;;33.13;16.17;;;;;;;7.70;33.47;102293.30;1633762;88;21233;-66
2022/03/24 00:31:47;;;;;;;28.32;15.38;;;;;;;7.68;33.75;102298.89;1633246;86;21141;-66
2022/03/24 00:34:15;;;;;;;27.70;15.08;;;;;;;7.68;33.92;102295.42;1633361;88;21061;-66
2022/03/24 00:36:42;;;;;;;30.12;16.50;;;;;;;7.67;34.04;102291.07;1633421;86;21043;-66
2022/03/24 00:39:11;;;;;;;27.90;15.13;;;;;;;7.66;34.25;102288.05;1635596;88;21602;-66
2022/03/24 00:41:38;;;;;;;23.38;13.32;;;;;;;7.63;34.26;102286.28;1652935;85;21033;-66
2022/03/24 00:44:07;;;;;;;30.00;15.35;;;;;;;7.64;34.31;102279.38;1681633;85;21049;-66
2022/03/24 00:46:34;;;;;;;27.30;15.18;;;;;;;7.62;34.32;102275.48;1682800;85;21049;-66
2022/03/24 00:49:01;;;;;;;26.75;15.13;;;;;;;7.62;34.47;102274.19;1682594;85;21032;-66
2022/03/24 00:51:29;;;;;;;23.55;14.03;;;;;;;7.62;34.64;102272.89;1681353;85;21037;-66
2022/03/24 00:53:56;;;;;;;28.27;14.15;;;;;;;7.61;34.88;102271.14;1679586;85;21013;-66
2022/03/24 00:56:23;;;;;;;21.20;12.65;;;;;;;7.58;35.22;102260.75;1679915;85;21021;-66
2022/03/24 00:58:50;;;;;;;20.52;13.22;;;;;;;7.56;35.63;102258.98;1680234;84;21738;-66
2022/03/24 01:01:18;;;;;;;20.72;11.03;;;;;;;7.54;35.89;102242.55;1679867;84;21557;-66
2022/03/24 01:03:46;;;;;;;22.02;11.70;;;;;;;7.53;36.15;102246.84;1680972;85;21040;-66
2022/03/24 01:06:16;;;;;;;19.12;11.43;;;;;;;7.52;36.41;102236.47;1682828;85;21080;-66
2022/03/24 01:08:44;;;;;;;19.30;10.68;;;;;;;7.50;36.19;102237.72;1679918;85;21061;-66
2022/03/24 01:11:13;;;;;;;15.53;10.08;;;;;;;7.49;36.30;102234.70;1666757;85;21025;-66
2022/03/24 01:13:43;;;;;;;18.77;11.03;;;;;;;7.48;36.29;102232.95;1683465;84;21037;-66
2022/03/24 01:16:10;;;;;;;17.10;11.10;;;;;;;7.49;36.23;102227.34;1682690;85;21037;-66
2022/03/24 01:18:39;;;;;;;13.68;10.40;;;;;;;7.46;36.36;102228.62;1684139;84;21639;-66
2022/03/24 01:21:07;;;;;;;22.90;10.88;;;;;;;7.45;36.60;102221.27;1682707;84;21036;-66
2022/03/24 01:23:34;;;;;;;15.93;9.65;;;;;;;7.44;36.88;102220.80;1683201;84;21076;-67
2022/03/24 01:26:05;;;;;;;18.98;11.33;;;;;;;7.45;36.58;102225.16;1681111;84;21111;-66
2022/03/24 01:28:30;;;;;;;14.38;9.93;;;;;;;7.43;36.45;102224.26;1683900;84;21052;-66
2022/03/24 01:30:58;;;;;;;16.37;10.32;;;;;;;7.42;36.18;102221.20;1682280;84;21064;-67
2022/03/24 01:33:25;;;;;;;15.40;9.23;;;;;;;7.39;36.25;102222.47;1686009;84;21033;-66
2022/03/24 01:35:52;;;;;;;12.05;7.92;;;;;;;7.38;36.56;102214.24;1686226;84;21544;-66
2022/03/24 01:38:19;;;;;;;11.20;7.55;;;;;;;7.36;36.31;102209.47;1669630;84;21528;-67
2022/03/24 01:40:47;;;;;;;11.22;7.55;;;;;;;7.38;35.82;102211.66;1685803;84;21052;-66
2022/03/24 01:43:14;;;;;;;12.43;7.47;;;;;;;7.40;35.47;102203.06;1686157;84;21060;-66
2022/03/24 01:45:42;;;;;;;9.48;6.83;;;;;;;7.45;35.24;102200.55;1685534;84;21005;-66
2022/03/24 01:48:09;;;;;;;9.55;6.78;;;;;;;7.48;34.76;102198.43;1670205;84;21048;-67
2022/03/24 01:50:36;;;;;;;8.78;6.15;;;;;;;7.51;34.50;102195.87;1681613;84;21096;-67
2022/03/24 01:53:05;;;;;;;9.55;6.85;;;;;;;7.54;34.26;102198.09;1688069;83;21020;-67
2022/03/24 01:55:34;;;;;;;11.40;7.42;;;;;;;7.58;34.23;102194.70;1685327;84;21037;-66
2022/03/24 01:58:03;;;;;;;9.38;6.28;;;;;;;7.60;34.01;102187.81;1683397;84;21025;-66
2022/03/24 02:00:32;;;;;;;10.72;6.37;;;;;;;7.62;33.84;102181.34;1682946;84;21517;-67
2022/03/24 02:03:02;;;;;;;10.03;6.47;;;;;;;7.64;33.40;102169.28;1683008;84;21068;-66
2022/03/24 02:05:36;;;;;;;9.58;6.62;;;;;;;7.65;33.33;102174.89;1680025;84;21049;-67
2022/03/24 02:08:04;;;;;;;13.90;7.55;;;;;;;7.68;33.07;102170.64;1684345;84;21040;-67
2022/03/24 02:10:34;;;;;;;13.50;7.45;;;;;;;7.69;33.15;102171.08;1681818;84;21129;-67
2022/03/24 02:13:03;;;;;;;11.38;7.47;;;;;;;7.70;33.20;102173.25;1681148;84;21068;-66
2022/03/24 02:15:32;;;;;;;12.98;7.60;;;;;;;7.71;33.47;102170.66;1682623;84;21077;-66
2022/03/24 02:17:59;;;;;;;10.88;7.30;;;;;;;7.71;33.61;102166.78;1673069;84;21128;-66
2022/03/24 02:20:30;;;;;;;14.93;7.67;;;;;;;7.71;33.78;102166.78;1685910;84;21025;-66
2022/03/24 02:22:56;;;;;;;12.15;7.53;;;;;;;7.72;33.86;102165.95;1687493;84;21080;-66
2022/03/24 02:25:28;;;;;;;11.60;7.72;;;;;;;7.71;33.86;102161.59;1688790;84;21520;-67
2022/03/24 02:27:55;;;;;;;16.85;8.55;;;;;;;7.70;33.75;102158.58;1678922;84;21493;-67
2022/03/24 02:30:24;;;;;;;10.93;8.13;;;;;;;7.68;33.79;102156.39;1687214;84;21072;-66
2022/03/24 02:32:53;;;;;;;11.30;7.70;;;;;;;7.67;33.73;102149.45;1686665;84;21088;-66
2022/03/24 02:35:20;;;;;;;12.58;7.83;;;;;;;7.66;33.77;102155.51;1685227;84;21008;-67
2022/03/24 02:37:49;;;;;;;10.72;7.28;;;;;;;7.64;33.92;102159.80;1688689;84;21599;-67
2022/03/24 02:40:16;;;;;;;11.35;7.80;;;;;;;7.61;33.90;102162.34;1675236;84;21096;-66
2022/03/24 02:42:45;;;;;;;12.47;7.92;;;;;;;7.59;33.68;102161.45;1686768;84;21040;-66
2022/03/24 02:45:13;;;;;;;11.15;7.50;;;;;;;7.57;33.39;102160.56;1685168;84;21036;-67
2022/03/24 02:47:42;;;;;;;15.03;8.35;;;;;;;7.55;33.45;102154.49;1684371;84;21080;-66
2022/03/24 02:50:09;;;;;;;15.38;8.75;;;;;;;7.54;33.45;102160.54;1690052;84;21053;-66
2022/03/24 02:52:38;;;;;;;12.63;6.67;;;;;;;7.52;33.58;102154.47;1688638;84;21616;-66
2022/03/24 02:55:07;;;;;;;8.55;6.75;;;;;;;7.50;33.23;102153.55;1686347;84;21021;-66
2022/03/24 02:57:35;;;;;;;9.35;6.17;;;;;;;7.48;32.63;102152.66;1686055;84;21547;-67
2022/03/24 03:00:03;;;;;;;7.72;5.85;;;;;;;7.47;32.33;102146.17;1685480;84;21540;-66
2022/03/24 03:02:31;;;;;;;7.25;5.70;;;;;;;7.47;31.97;102148.34;1686322;84;21017;-66
2022/03/24 03:04:58;;;;;;;6.40;5.40;;;;;;;7.46;31.54;102147.88;1685877;84;21056;-66
2022/03/24 03:07:28;;;;;;;8.20;5.97;;;;;;;7.47;31.50;102140.58;1687887;83;21052;-66
2022/03/24 03:09:54;;;;;;;7.85;6.67;;;;;;;7.49;31.79;102142.76;1689033;84;21009;-67
2022/03/24 03:12:22;;;;;;;9.83;6.42;;;;;;;7.50;31.83;102138.01;1688961;84;21068;-66
2022/03/24 03:14:49;;;;;;;11.35;7.55;;;;;;;7.51;32.08;102135.88;1686161;84;21539;-67
2022/03/24 03:17:16;;;;;;;8.60;6.28;;;;;;;7.51;31.99;102138.89;1690569;83;21484;-66
2022/03/24 03:19:45;;;;;;;13.95;7.67;;;;;;;7.50;32.17;102134.57;1714062;83;21098;-66
2022/03/24 03:22:15;;;;;;;9.33;7.05;;;;;;;7.48;32.32;102135.83;1715163;83;21012;-66
2022/03/24 03:24:42;;;;;;;10.50;7.12;;;;;;;7.46;32.41;102128.46;1605043;87;21054;-66
2022/03/24 03:27:09;;;;;;;13.50;7.53;;;;;;;7.44;32.45;102127.58;1603331;87;21627;-66
2022/03/24 03:29:37;;;;;;;11.55;7.90;;;;;;;7.43;32.70;102121.97;1602415;87;21636;-67
2022/03/24 03:32:06;;;;;;;13.43;9.15;;;;;;;7.41;32.53;102117.19;1602471;87;21067;-67
2022/03/24 03:34:33;;;;;;;17.30;9.03;;;;;;;7.40;32.46;102115.44;1602567;87;21541;-67
2022/03/24 03:37:01;;;;;;;24.37;13.08;;;;;;;7.36;32.41;102114.54;1597440;89;21502;-66
2022/03/24 03:39:28;;;;;;;24.32;15.18;;;;;;;7.35;32.34;102110.64;1603063;87;21034;-66
2022/03/24 03:41:56;;;;;;;34.50;18.75;;;;;;;7.34;32.40;102107.59;1602311;87;21111;-67
2022/03/24 03:44:24;;;;;;;34.67;18.42;;;;;;;7.32;32.52;102104.99;1602386;87;21087;-67
2022/03/24 03:46:51;;;;;;;37.45;20.30;;;;;;;7.31;32.89;102108.45;1602486;87;21614;-66
2022/03/24 03:49:20;;;;;;;49.48;23.95;;;;;;;7.28;33.11;102099.75;1602369;87;21059;-67
2022/03/24 03:51:48;;;;;;;47.03;23.02;;;;;;;7.26;33.01;102101.03;1603804;87;21081;-67
2022/03/24 03:54:16;;;;;;;28.75;15.03;;;;;;;7.24;32.65;102095.38;1605339;87;21102;-66
2022/03/24 03:56:43;;;;;;;26.05;13.30;;;;;;;7.24;32.32;102097.97;1605125;87;21075;-66
2022/03/24 03:59:10;;;;;;;25.55;12.70;;;;;;;7.24;32.21;102092.80;1603037;87;21113;-67
2022/03/24 04:01:39;;;;;;;18.52;11.15;;;;;;;7.23;32.05;102099.69;1603482;87;21066;-66
2022/03/24 04:04:12;;;;;;;20.88;11.28;;;;;;;7.24;32.19;102095.38;1604144;89;21617;-66
2022/03/24 04:06:35;;;;;;;19.17;11.57;;;;;;;7.24;32.14;102094.09;1599883;89;21095;-67
2022/03/24 04:09:03;;;;;;;20.10;12.15;;;;;;;7.26;32.02;102096.27;1593697;87;21083;-67
2022/03/24 04:11:30;;;;;;;23.50;11.60;;;;;;;7.27;31.95;102103.20;1601490;89;21118;-67
2022/03/24 04:13:58;;;;;;;19.48;9.85;;;;;;;7.26;31.95;102096.27;1604962;87;21038;-67
2022/03/24 04:16:25;;;;;;;16.62;10.23;;;;;;;7.26;31.90;102097.15;1602536;87;21051;-67
2022/03/24 04:18:52;;;;;;;19.65;10.28;;;;;;;7.26;32.02;102098.86;1616762;87;21434;-67
2022/03/24 04:21:20;;;;;;;30.45;10.18;;;;;;;7.25;31.93;102090.66;1621012;86;21089;-66
2022/03/24 04:23:47;;;;;;;20.52;10.58;;;;;;;7.24;31.93;102086.32;1682057;84;21076;-66
2022/03/24 04:26:16;;;;;;;17.73;10.85;;;;;;;7.23;32.13;102084.59;1683562;83;21054;-67
2022/03/24 04:28:43;;;;;;;13.80;8.65;;;;;;;7.23;32.25;102085.45;1685213;83;21073;-66
2022/03/24 04:31:12;;;;;;;19.95;8.55;;;;;;;7.23;32.21;102085.89;1686243;83;21049;-66
2022/03/24 04:33:39;;;;;;;27.30;10.93;;;;;;;7.23;32.22;102088.48;1685519;84;21137;-66
2022/03/24 04:36:08;;;;;;;23.45;10.43;;;;;;;7.23;32.59;102085.45;1683227;83;21041;-66
2022/03/24 04:38:36;;;;;;;21.57;9.78;;;;;;;7.24;32.94;102078.14;1684872;83;21093;-66
2022/03/24 04:41:04;;;;;;;18.23;8.40;;;;;;;7.26;33.09;102081.61;1684986;84;21022;-67
2022/03/24 04:43:32;;;;;;;21.05;9.73;;;;;;;7.28;33.03;102077.74;1686149;83;21084;-66
2022/03/24 04:45:59;;;;;;;17.82;9.88;;;;;;;7.30;32.85;102082.52;1686208;83;21589;-66
2022/03/24 04:48:26;;;;;;;18.20;8.95;;;;;;;7.33;33.11;102087.75;1683813;84;21046;-66
2022/03/24 04:50:54;;;;;;;17.05;9.83;;;;;;;7.34;33.42;102076.52;1683015;83;21534;-66
2022/03/24 04:53:22;;;;;;;24.47;9.18;;;;;;;7.37;34.16;102075.28;1682757;83;21502;-66
2022/03/24 04:55:49;;;;;;;24.60;9.05;;;;;;;7.41;34.41;102070.58;1683417;83;21522;-67
2022/03/24 04:58:16;;;;;;;24.32;9.30;;;;;;;7.43;34.49;102058.52;1682995;83;21089;-66
2022/03/24 05:00:44;;;;;;;16.27;8.18;;;;;;;7.47;34.24;102063.30;1685321;83;21046;-66
2022/03/24 05:03:12;;;;;;;21.55;9.38;;;;;;;7.50;34.43;102056.42;1681964;84;21548;-66
2022/03/24 05:05:40;;;;;;;20.80;9.60;;;;;;;7.53;34.27;102053.01;1677212;83;21091;-66
2022/03/24 05:08:09;;;;;;;18.62;9.70;;;;;;;7.57;34.15;102054.36;1677916;84;21090;-66
2022/03/24 05:10:36;;;;;;;16.97;8.10;;;;;;;7.62;33.80;102042.34;1685937;83;21085;-66
2022/03/24 05:13:06;;;;;;;12.20;7.33;;;;;;;7.66;33.34;102037.63;1675350;83;21010;-66
2022/03/24 05:15:34;;;;;;;13.75;7.55;;;;;;;7.70;32.99;102035.52;1683772;83;21565;-66
2022/03/24 05:18:01;;;;;;;11.15;6.10;;;;;;;7.76;32.65;102038.17;1678595;83;21065;-66
2022/03/24 05:20:28;;;;;;;9.83;6.30;;;;;;;7.81;32.37;102039.06;1678361;83;21045;-66
2022/03/24 05:22:57;;;;;;;7.62;5.10;;;;;;;7.86;32.09;102046.47;1677309;83;21497;-66
2022/03/24 05:25:27;;;;;;;8.68;5.33;;;;;;;7.91;31.80;102044.77;1675576;83;21586;-66
2022/03/24 05:27:54;;;;;;;10.45;5.33;;;;;;;7.97;31.71;102047.45;1677306;83;21054;-66
2022/03/24 05:30:23;;;;;;;11.20;5.25;;;;;;;8.03;31.69;102047.51;1678903;85;21555;-67
2022/03/24 05:32:50;;;;;;;10.35;5.47;;;;;;;8.08;31.54;102036.73;1678514;83;21502;-66
2022/03/24 05:35:17;;;;;;;10.48;5.65;;;;;;;8.14;31.51;102030.72;1678288;83;21054;-66
2022/03/24 05:37:44;;;;;;;8.58;5.45;;;;;;;8.17;31.45;102029.05;1675701;83;21046;-66
2022/03/24 05:40:13;;;;;;;8.65;5.47;;;;;;;8.23;31.62;102027.80;1675520;83;21038;-66
2022/03/24 05:42:40;;;;;;;8.53;5.65;;;;;;;8.30;31.68;102031.77;1675194;83;21105;-66
2022/03/24 05:45:09;;;;;;;5.90;4.87;;;;;;;8.33;31.90;102022.28;1676072;83;21046;-66
2022/03/24 05:47:36;;;;;;;7.03;5.00;;;;;;;8.40;32.06;102027.09;1675438;83;21526;-66
2022/03/24 05:50:06;;;;;;;9.25;5.50;;;;;;;8.45;32.16;102029.30;1684187;83;21065;-66
2022/03/24 05:52:53;;;;;;;10.32;5.42;;;;;;;8.51;32.28;102028.05;1671879;83;21062;-66
2022/03/24 05:55:20;;;;;;;8.00;5.03;;;;;;;8.57;32.31;102029.38;1672927;83;21003;-66
2022/03/24 05:57:48;;;;;;;9.58;5.80;;;;;;;8.63;32.42;102032.02;1678427;83;21062;-66
2022/03/24 06:00:16;;;;;;;5.87;5.00;;;;;;;8.70;32.70;102032.05;1674649;85;21097;-66
2022/03/24 06:02:45;;;;;;;6.40;5.45;;;;;;;8.90;33.19;102034.78;1665955;83;21549;-66
2022/03/24 06:05:12;;;;;;;6.83;5.28;;;;;;;9.26;32.29;102027.56;1678085;83;21035;-66
2022/03/24 06:07:40;;;;;;;7.10;5.58;;;;;;;9.66;31.53;102022.52;1678544;83;21077;-66
2022/03/24 06:10:08;;;;;;;6.80;5.17;;;;;;;10.10;30.83;102008.70;1677151;83;21119;-66
2022/03/24 06:12:35;;;;;;;8.68;5.50;;;;;;;10.59;30.26;102012.56;1676242;83;21006;-66
2022/03/24 06:15:04;;;;;;;7.55;6.35;;;;;;;11.13;29.71;102004.15;1677619;85;21054;-66
2022/03/24 06:17:33;;;;;;;8.10;5.53;;;;;;;11.68;28.92;102003.48;1678984;85;21569;-66
2022/03/24 06:20:03;;;;;;;6.67;5.25;;;;;;;12.15;28.07;101991.81;1704638;83;21103;-66
2022/03/24 06:22:49;;;;;;;;;;;;;;;12.51;27.64;101984.06;1709648;83;21032;-66
2022/03/24 06:25:17;;;;;;;7.53;6.33;;;;;;;12.82;27.01;101988.08;1707363;83;20153;-67
2022/03/24 06:27:46;;;;;;;7.33;5.80;;;;;;;13.10;26.57;101981.25;1705981;83;21478;-67
2022/03/24 06:30:14;;;;;;;7.97;5.60;;;;;;;13.29;26.63;101984.06;1704509;83;21083;-67
2022/03/24 06:32:42;;;;;;;7.03;5.83;;;;;;;13.58;26.57;101974.06;1704741;83;21020;-67
2022/03/24 06:35:11;;;;;;;6.85;5.40;;;;;;;14.02;26.02;101979.45;1704383;83;21559;-66
2022/03/24 06:37:41;;;;;;;9.90;6.55;;;;;;;14.45;25.49;101981.78;1704354;83;21063;-67
2022/03/24 06:40:11;;;;;;;8.68;6.45;;;;;;;14.85;25.03;101977.09;1704966;83;21012;-66
2022/03/24 06:42:39;;;;;;;13.62;6.65;;;;;;;15.14;24.81;101976.92;1683569;84;21050;-67
2022/03/24 06:45:10;;;;;;;12.37;8.00;;;;;;;15.36;24.63;101972.06;1685742;84;21047;-66
2022/03/24 06:47:39;;;;;;;8.98;7.37;;;;;;;15.53;24.47;101967.34;1681615;84;21066;-66
2022/03/24 06:52:42;;;;;;;10.48;6.83;;;;;;;15.82;24.23;101968.84;1511364;94;21631;-66
2022/03/24 06:55:10;;;;;;;9.00;6.12;;;;;;;15.94;25.70;101975.10;1511353;94;21090;-67
2022/03/24 06:57:38;;;;;;;11.85;6.12;;;;;;;16.00;27.77;101977.58;1511396;94;21095;-67
2022/03/24 07:00:06;;;;;;;10.25;6.12;;;;;;;15.97;28.76;101974.17;1511317;94;21147;-67
2022/03/24 07:02:33;;;;;;;7.55;5.80;;;;;;;15.89;29.77;101971.71;1511637;94;21120;-67
2022/03/24 07:05:01;;;;;;;8.98;5.85;;;;;;;15.85;30.21;101966.13;1501941;94;21588;-66
2022/03/24 07:07:28;;;;;;;6.70;5.08;;;;;;;15.85;29.88;101966.13;1511614;95;21142;-66
2022/03/24 07:09:55;;;;;;;7.97;6.25;;;;;;;15.89;29.98;101958.59;1511252;94;21083;-66
2022/03/24 07:12:23;;;;;;;10.25;5.62;;;;;;;15.97;29.79;101960.57;1511767;94;21600;-67
2022/03/24 07:14:50;;;;;;;8.50;6.35;;;;;;;16.08;29.19;101962.93;1502194;95;21090;-67
2022/03/24 07:17:19;;;;;;;8.30;5.70;;;;;;;16.20;28.64;101962.17;1509922;94;21143;-67
2022/03/24 07:19:48;;;;;;;7.40;5.67;;;;;;;16.29;28.39;101960.63;1505375;94;21155;-67
2022/03/24 07:22:15;;;;;;;11.40;6.33;;;;;;;16.37;28.45;101955.61;1503208;95;21159;-66
2022/03/24 07:24:43;;;;;;;10.78;5.92;;;;;;;16.43;28.29;101951.50;1503145;95;21103;-66
2022/03/24 07:27:14;;;;;;;9.28;6.12;;;;;;;16.43;28.31;101952.37;1503125;95;21603;-67
2022/03/24 07:29:40;;;;;;;8.13;6.00;;;;;;;16.42;28.75;101953.73;1503088;95;21660;-66
2022/03/24 07:32:09;;;;;;;7.95;6.05;;;;;;;16.35;29.14;101949.54;1503168;94;21578;-66
2022/03/24 07:34:36;;;;;;;8.40;5.85;;;;;;;16.26;29.28;101960.70;1503134;95;21059;-66
2022/03/24 07:37:05;;;;;;;8.03;5.75;;;;;;;16.15;29.43;101960.13;1502932;94;21132;-67
2022/03/24 07:39:32;;;;;;;10.40;6.92;;;;;;;15.99;30.18;101952.20;1508345;95;21128;-66
2022/03/24 07:41:59;;;;;;;7.28;6.35;;;;;;;15.82;30.65;101949.16;1512526;95;21096;-66
2022/03/24 07:44:27;;;;;;;9.45;6.22;;;;;;;15.64;31.05;101952.20;1512567;95;21089;-68
2022/03/24 07:46:54;;;;;;;9.98;7.03;;;;;;;15.47;31.27;101954.38;1512744;95;21169;-67
2022/03/24 07:49:21;;;;;;;12.18;7.65;;;;;;;15.31;31.75;101952.97;1587682;85;21065;-67
2022/03/24 07:51:48;;;;;;;7.72;6.53;;;;;;;15.16;31.65;101955.91;1687734;85;21065;-67
2022/03/24 07:54:16;;;;;;;7.65;6.85;;;;;;;15.00;32.21;101957.13;1681157;85;21538;-66
2022/03/24 07:56:43;;;;;;;9.78;6.70;;;;;;;14.84;32.51;101946.56;1681704;85;21530;-66
2022/03/24 07:59:10;;;;;;;8.25;6.35;;;;;;;14.74;32.41;101951.54;1680893;85;21044;-66
2022/03/24 08:01:38;;;;;;;8.58;6.20;;;;;;;14.62;32.29;101952.66;1680693;85;21050;-67
2022/03/24 08:04:05;;;;;;;9.90;6.72;;;;;;;14.51;32.48;101947.62;1681573;85;21557;-66
2022/03/24 08:06:35;;;;;;;11.48;6.72;;;;;;;14.43;33.20;101953.45;1683605;85;21037;-67
2022/03/24 08:09:02;;;;;;;9.08;6.55;;;;;;;14.35;34.29;101948.80;1684381;85;21025;-66
2022/03/24 08:11:30;;;;;;;9.20;6.47;;;;;;;14.27;34.97;101943.25;1680331;85;21542;-65
2022/03/24 08:13:57;;;;;;;9.25;6.45;;;;;;;14.19;35.53;101941.22;1677462;85;21006;-65
2022/03/24 08:16:26;;;;;;;8.23;6.22;;;;;;;14.11;36.29;101943.11;1681372;85;21073;-66
2022/03/24 08:18:53;;;;;;;8.30;6.28;;;;;;;14.02;36.86;101933.66;1688648;83;21074;-66
2022/03/24 08:21:22;;;;;;;8.28;6.33;;;;;;;13.96;36.93;101939.43;1712870;83;21007;-65
2022/03/24 08:23:50;;;;;;;7.92;7.00;;;;;;;13.89;37.07;101934.73;1714848;83;21044;-66
2022/03/24 08:26:17;;;;;;;10.10;7.00;;;;;;;13.81;37.16;101925.72;1710779;83;21031;-65
2022/03/24 08:28:45;;;;;;;7.97;7.10;;;;;;;13.75;37.05;101926.26;1709912;83;21035;-65
2022/03/24 08:31:14;;;;;;;8.88;6.65;;;;;;;13.68;36.83;101921.56;1711903;83;21063;-65
2022/03/24 08:33:41;;;;;;;9.90;6.83;;;;;;;13.63;36.89;101918.61;1709493;83;21087;-65
2022/03/24 08:36:09;;;;;;;10.05;7.00;;;;;;;13.59;37.51;101918.23;1713599;83;21027;-65
2022/03/24 08:38:36;;;;;;;8.65;7.03;;;;;;;13.56;37.93;101914.38;1712832;83;21099;-65
2022/03/24 08:41:05;;;;;;;9.48;7.37;;;;;;;13.52;38.02;101913.55;1714755;83;21023;-66
2022/03/24 08:43:32;;;;;;;8.78;7.12;;;;;;;13.49;38.18;101917.97;1705479;83;21055;-65
2022/03/24 08:46:02;;;;;;;10.13;6.92;;;;;;;13.44;38.37;101908.00;1718688;83;21075;-65
2022/03/24 08:48:29;;;;;;;9.63;6.65;;;;;;;13.38;38.56;101904.17;1711951;83;21027;-65
2022/03/24 08:50:57;;;;;;;9.10;6.50;;;;;;;13.32;38.92;101899.05;1712158;83;21008;-65
2022/03/24 08:53:23;;;;;;;10.18;7.25;;;;;;;13.32;39.15;101901.66;1711992;83;21122;-66
2022/03/24 08:55:52;;;;;;;9.53;6.47;;;;;;;13.31;39.50;101906.05;1712542;83;21075;-65
2022/03/24 08:58:20;;;;;;;10.35;7.05;;;;;;;13.29;39.88;101901.72;1708996;83;21071;-65
2022/03/24 09:00:49;;;;;;;9.58;6.42;;;;;;;13.28;40.24;101893.00;1715076;83;21028;-66
2022/03/24 09:03:16;;;;;;;9.90;6.60;;;;;;;13.31;40.45;101897.33;1713982;83;22519;-65
2022/03/24 09:05:44;;;;;;;8.63;6.83;;;;;;;13.31;40.44;101892.98;1679697;83;21088;-66
2022/03/24 09:08:12;;;;;;;7.83;6.75;;;;;;;13.33;40.24;101890.33;1710105;83;21083;-66
2022/03/24 09:10:41;;;;;;;7.70;6.17;;;;;;;13.31;40.17;101881.65;1717707;83;21043;-66
2022/03/24 09:13:07;;;;;;;9.08;6.83;;;;;;;13.32;40.14;101880.75;1702155;83;21516;-65
2022/03/24 09:15:35;;;;;;;9.98;7.15;;;;;;;13.32;40.07;101887.28;1715026;83;21067;-65
2022/03/24 09:18:04;;;;;;;11.38;6.92;;;;;;;13.34;39.80;101886.81;1711216;83;21090;-65
2022/03/24 09:20:33;;;;;;;9.88;7.00;;;;;;;13.35;39.78;101886.81;1719179;83;21067;-66
2022/03/24 09:23:00;;;;;;;13.32;6.85;;;;;;;13.37;40.01;101881.55;1719326;83;21051;-65
2022/03/24 09:25:28;;;;;;;9.48;6.37;;;;;;;13.38;40.25;101876.73;1717343;83;21087;-66
2022/03/24 09:27:56;;;;;;;7.67;6.87;;;;;;;13.40;40.33;101871.03;1716925;83;21091;-66
2022/03/24 09:30:24;;;;;;;10.78;6.78;;;;;;;13.41;40.38;101875.39;1718084;83;21035;-65
2022/03/24 09:32:52;;;;;;;8.20;6.90;;;;;;;13.41;40.34;101868.42;1717359;83;21007;-66
2022/03/24 09:35:19;;;;;;;8.83;6.80;;;;;;;13.42;40.28;101862.72;1718158;83;21051;-65
2022/03/24 09:37:46;;;;;;;9.05;7.00;;;;;;;13.43;40.42;101862.72;1716502;83;21031;-65
2022/03/24 09:40:14;;;;;;;9.53;7.35;;;;;;;13.45;40.70;101863.56;1716012;83;21008;-66
2022/03/24 09:42:41;;;;;;;10.10;6.90;;;;;;;13.45;40.78;101856.15;1717129;83;21043;-65
2022/03/24 09:45:10;;;;;;;10.00;7.00;;;;;;;13.44;41.07;101855.72;1717317;83;21558;-66
2022/03/24 09:47:38;;;;;;;9.50;7.20;;;;;;;13.42;41.39;101854.88;1716492;83;21523;-66
2022/03/24 09:50:07;;;;;;;8.40;7.08;;;;;;;13.42;41.68;101856.18;1713926;83;21043;-65
2022/03/24 09:52:34;;;;;;;12.10;7.37;;;;;;;13.42;41.82;101850.95;1717506;83;21082;-65
2022/03/24 09:55:01;;;;;;;12.78;7.70;;;;;;;13.43;41.86;101850.08;1719337;83;21082;-65
2022/03/24 09:57:28;;;;;;;9.43;6.92;;;;;;;13.44;41.75;101843.95;1720381;83;21027;-65
2022/03/24 09:59:56;;;;;;;12.15;8.70;;;;;;;13.43;41.69;101843.11;1720605;83;21066;-65
2022/03/24 10:02:23;;;;;;;11.03;7.83;;;;;;;13.42;41.67;101838.75;1718651;83;22242;-66
2022/03/24 10:04:53;;;;;;;11.18;7.08;;;;;;;13.41;41.60;101837.05;1717582;82;21476;-65
2022/03/24 10:07:25;;;;;;;10.08;7.40;;;;;;;13.41;41.73;101838.78;1717518;83;21019;-65
2022/03/24 10:09:55;;;;;;;7.97;7.12;;;;;;;13.40;41.75;101829.20;1715167;82;21590;-65
2022/03/24 10:12:33;;;;;;;9.28;6.80;;;;;;;13.40;41.87;101826.59;1712518;83;21015;-65
2022/03/24 10:15:11;;;;;;;8.98;6.95;;;;;;;13.40;41.86;101826.59;1719748;82;21047;-65
2022/03/24 10:17:41;;;;;;;13.85;7.35;;;;;;;13.40;41.88;101821.36;1719569;83;21011;-65
2022/03/24 10:22:40;;;;;;;9.25;7.33;;;;;;;13.50;42.02;101817.70;1559694;90;21134;-66
2022/03/24 10:25:20;;;;;;;11.93;6.87;;;;;;;13.52;42.04;101808.08;1547213;92;21096;-65
2022/03/24 10:28:05;;;;;;;10.05;7.05;;;;;;;13.54;42.04;101814.17;1552003;92;21105;-65
2022/03/24 10:30:59;;;;;;;9.15;7.35;;;;;;;13.53;42.25;101817.66;1530325;93;21095;-65
2022/03/24 10:33:45;;;;;;;10.13;7.10;;;;;;;13.52;42.30;101808.08;1529687;93;21099;-65
2022/03/24 10:36:17;;;;;;;9.90;7.20;;;;;;;13.53;42.35;101804.16;1521604;93;21608;-65
2022/03/24 10:38:48;;;;;;;8.70;6.95;;;;;;;13.56;42.33;101805.86;1530238;93;21063;-65
2022/03/24 10:41:24;;;;;;;9.40;7.37;;;;;;;13.56;42.40;101799.32;1483897;96;21108;-65
2022/03/24 10:43:54;;;;;;;8.15;6.78;;;;;;;13.57;42.51;101797.98;1483972;96;21178;-65
2022/03/24 10:46:23;;;;;;;11.03;7.25;;;;;;;13.60;42.47;101793.14;1465379;97;21104;-66
2022/03/24 10:49:19;;;;;;;10.05;7.42;;;;;;;13.63;42.22;101789.15;1439369;97;22009;-67
2022/03/24 10:52:00;;;;;;;7.90;6.85;;;;;;;13.64;42.07;101784.35;1464229;97;21159;-66
2022/03/24 10:54:48;;;;;;;8.15;7.00;;;;;;;13.65;41.89;101786.06;1461403;97;21147;-66
2022/03/24 10:57:16;;;;;;;9.28;6.25;;;;;;;13.66;41.98;101782.10;1463381;97;21150;-67
2022/03/24 10:59:58;;;;;;;9.13;7.33;;;;;;;13.66;42.04;101782.58;1464845;97;21117;-66
2022/03/24 11:02:22;;;;;;;8.65;7.25;;;;;;;13.68;42.12;101772.94;1456869;97;21176;-66
2022/03/24 11:04:51;;;;;;;9.33;7.20;;;;;;;13.68;42.11;101772.94;1464877;96;21568;-67
2022/03/24 11:07:26;;;;;;;8.73;6.92;;;;;;;13.68;42.12;101762.02;1476927;97;21151;-66
2022/03/24 11:09:55;;;;;;;10.23;7.30;;;;;;;13.70;42.18;101752.86;1464113;96;21127;-66
2022/03/24 11:12:38;;;;;;;9.80;6.87;;;;;;;13.70;42.33;101756.30;1466585;96;21094;-67
2022/03/24 11:15:06;;;;;;;10.30;7.83;;;;;;;13.74;42.28;101744.06;1454823;96;21216;-66
2022/03/24 11:17:35;;;;;;;9.43;6.85;;;;;;;13.76;42.29;101739.66;1461705;98;21679;-66
2022/03/24 11:20:09;;;;;;;9.13;7.28;;;;;;;13.75;42.27;101736.17;1465226;98;21725;-67
2022/03/24 11:23:19;;;;;;;8.73;6.97;;;;;;;13.75;42.29;101737.92;1466989;98;21096;-66
2022/03/24 11:25:46;;;;;;;11.00;7.47;;;;;;;13.76;42.37;101731.81;1464426;98;21107;-66
2022/03/24 11:28:14;;;;;;;8.83;6.50;;;;;;;13.77;42.51;101728.28;1510217;95;21688;-66
2022/03/24 11:30:41;;;;;;;13.83;6.67;;;;;;;13.81;42.52;101731.26;1492732;96;21104;-66
2022/03/24 11:33:09;;;;;;;10.03;7.75;;;;;;;13.84;42.55;101723.36;1542950;93;21062;-66
2022/03/24 11:35:37;;;;;;;7.65;6.60;;;;;;;13.90;42.45;101723.23;1538473;93;21050;-66
2022/03/24 11:38:04;;;;;;;9.85;6.65;;;;;;;13.91;42.42;101709.72;1575315;89;21077;-66